Sinar Morotai — 3EDQ9 — position and weather

sailwx.info

Track history (hours):
 
Tides and Currents Weather Stations Pressure Air Temp Water Temp Dewpoint Dewpoint Depression Visibility Wind Speed Wind Dir Waves Ship Positions

Sinar Morotai

Last reported at 2017-Apr-14 14:13 UTC. Time now 2017-Aug-17 21:12 UTC.
Position N 01°15' E 104°02'.
Warning: this ship's position is months out of date.

Length 95 m; draft 4.8 m.

Type: Tanker. MMSI: 357054000.

Date/timePositionNaut miles runAvg speedWind from/ knotsBaromVisibWave heightAir tempDewpointWater temp
2017-Apr-14 14:13N 01°15' E 104°02'710.3
2017-Apr-14 13:30N 01°13' E 103°54'510.0
2017-Apr-14 13:00N 01°11' E 103°50'5 9.8
2017-Apr-14 12:31N 01°08' E 103°46'510.9
2017-Apr-14 12:00N 01°04' E 103°42'5 9.6
2017-Apr-14 11:30N 01°03' E 103°37'610.8
2017-Apr-14 10:59N 01°07' E 103°33'510.4
2017-Apr-14 10:30N 01°11' E 103°34'5 9.7
2017-Apr-14 10:00N 01°11' E 103°38'5 9.7
2017-Apr-14 09:30N 01°14' E 103°42'1 1.9
2017-Apr-14 08:58N 01°15' E 103°43'0 0.0
2017-Apr-14 08:28N 01°15' E 103°43'0 0.0
2017-Apr-14 07:55N 01°15' E 103°43'0 0.0
2017-Apr-14 07:28N 01°15' E 103°43'0 0.0
2017-Apr-14 06:58N 01°15' E 103°43'0 0.0
2017-Apr-14 06:28N 01°15' E 103°43'0 0.0
2017-Apr-14 05:58N 01°15' E 103°43'0 0.0
2017-Apr-14 05:28N 01°15' E 103°43'0 0.0
2017-Apr-14 04:58N 01°15' E 103°43'0 0.0
2017-Apr-14 04:28N 01°15' E 103°43'0 0.1
2017-Apr-14 03:55N 01°15' E 103°43'0 0.1
2017-Apr-14 03:28N 01°15' E 103°43'0 0.1
2017-Apr-14 02:58N 01°15' E 103°43'0 0.1
2017-Apr-14 02:28N 01°15' E 103°43'0 0.1
2017-Apr-14 01:55N 01°15' E 103°43'0 0.1
2017-Apr-14 01:28N 01°15' E 103°43'0 0.0
2017-Apr-14 00:58N 01°15' E 103°43'0 0.0
2017-Apr-14 00:28N 01°15' E 103°43'0 0.0
2017-Apr-13 23:58N 01°15' E 103°43'0 0.0
2017-Apr-13 23:28N 01°15' E 103°43'0 0.0
2017-Apr-13 22:58N 01°15' E 103°43'0 0.0
2017-Apr-13 22:28N 01°15' E 103°43'0 0.0
2017-Apr-13 21:58N 01°15' E 103°43'0 0.0
2017-Apr-13 21:28N 01°15' E 103°43'0 0.0
2017-Apr-13 20:58N 01°15' E 103°43'0 0.0
2017-Apr-13 20:28N 01°15' E 103°43'0 0.1
2017-Apr-13 19:58N 01°15' E 103°43'0 0.1
2017-Apr-13 19:28N 01°15' E 103°43'0 0.0
2017-Apr-13 18:58N 01°15' E 103°43'0 0.0
2017-Apr-13 18:25N 01°15' E 103°43'0 0.0
2017-Apr-13 17:55N 01°15' E 103°43'0 0.0
2017-Apr-13 17:28N 01°15' E 103°43'0 0.0
2017-Apr-13 16:58N 01°15' E 103°43'0 0.0
2017-Apr-13 16:28N 01°15' E 103°43'0 0.0
2017-Apr-13 15:58N 01°15' E 103°43'0 0.0
2017-Apr-13 15:28N 01°15' E 103°43'0 0.0
2017-Apr-13 14:58N 01°15' E 103°43'3 3.5
2017-Apr-13 14:00N 01°13' E 103°40'2 3.7
2017-Apr-13 13:30N 01°13' E 103°39'0 0.1
2017-Apr-13 13:00N 01°13' E 103°39'0 0.0
2017-Apr-13 12:30N 01°13' E 103°39'0 0.0
2017-Apr-13 11:54N 01°13' E 103°39'0 0.0
2017-Apr-13 11:30N 01°13' E 103°39'0 0.0
2017-Apr-13 10:54N 01°13' E 103°39'0 0.0
2017-Apr-13 10:30N 01°13' E 103°39'0 0.1
2017-Apr-13 09:57N 01°13' E 103°39'0 0.1
2017-Apr-13 09:15N 01°13' E 103°39'0 0.0
2017-Apr-13 08:51N 01°13' E 103°39'0 0.0
2017-Apr-13 08:30N 01°13' E 103°39'0 0.1
2017-Apr-13 08:00N 01°13' E 103°39'0 0.0
2017-Apr-13 07:30N 01°13' E 103°39'0 0.1
2017-Apr-13 07:00N 01°13' E 103°39'0 0.0
2017-Apr-13 06:30N 01°13' E 103°39'0 0.0
2017-Apr-13 06:00N 01°13' E 103°39'0 0.0
2017-Apr-13 05:30N 01°13' E 103°39'0 0.1
2017-Apr-13 05:00N 01°13' E 103°39'0 0.0
2017-Apr-13 04:30N 01°13' E 103°39'0 0.0
2017-Apr-13 03:54N 01°13' E 103°39'0 0.0
2017-Apr-13 03:30N 01°13' E 103°39'0 0.0
2017-Apr-13 03:00N 01°13' E 103°39'0 0.1
2017-Apr-13 02:27N 01°13' E 103°39'0 0.0
2017-Apr-13 01:58N 01°13' E 103°39'0 0.1
2017-Apr-13 01:30N 01°13' E 103°39'0 0.1
2017-Apr-13 01:00N 01°13' E 103°39'0 0.1
2017-Apr-13 00:30N 01°13' E 103°39'0 0.0
2017-Apr-13 00:00N 01°13' E 103°39'0 0.1
2017-Apr-12 23:29N 01°13' E 103°39'0 0.1
2017-Apr-12 22:59N 01°13' E 103°39'0 0.0
2017-Apr-12 22:30N 01°13' E 103°39'0 0.1
2017-Apr-12 22:00N 01°13' E 103°39'0 0.0
2017-Apr-12 21:30N 01°13' E 103°39'0 0.2
2017-Apr-12 20:58N 01°13' E 103°39'0 0.3
2017-Apr-12 20:30N 01°13' E 103°39'0 0.1
2017-Apr-12 20:00N 01°13' E 103°39'2 4.7
2017-Apr-12 19:30N 01°11' E 103°40'5 9.4
2017-Apr-12 18:59N 01°09' E 103°44'510.2
2017-Apr-12 18:30N 01°11' E 103°49'611.4
2017-Apr-12 18:00N 01°13' E 103°54'611.9
2017-Apr-12 17:30N 01°16' E 103°60'  
Track history (hours):
 
Tides and Currents Weather Stations Pressure Air Temp Water Temp Dewpoint Dewpoint Depression Visibility Wind Speed Wind Dir Waves Ship Positions

Sinar Morotai

Last reported at 2017-Apr-14 14:13 UTC. Time now 2017-Aug-17 21:12 UTC.
Position N 01°15' E 104°02'.
Warning: this ship's position is months out of date.

Length 95 m; draft 4.8 m.

Type: Tanker. MMSI: 357054000.

Date/timePositionNaut miles runAvg speedWind from/ knotsBaromVisibWave heightAir tempDewpointWater temp
2017-Apr-14 14:13N 01°15' E 104°02'710.3
2017-Apr-14 13:30N 01°13' E 103°54'510.0
2017-Apr-14 13:00N 01°11' E 103°50'5 9.8
2017-Apr-14 12:31N 01°08' E 103°46'510.9
2017-Apr-14 12:00N 01°04' E 103°42'5 9.6
2017-Apr-14 11:30N 01°03' E 103°37'610.8
2017-Apr-14 10:59N 01°07' E 103°33'510.4
2017-Apr-14 10:30N 01°11' E 103°34'5 9.7
2017-Apr-14 10:00N 01°11' E 103°38'5 9.7
2017-Apr-14 09:30N 01°14' E 103°42'1 1.9
2017-Apr-14 08:58N 01°15' E 103°43'0 0.0
2017-Apr-14 08:28N 01°15' E 103°43'0 0.0
2017-Apr-14 07:55N 01°15' E 103°43'0 0.0
2017-Apr-14 07:28N 01°15' E 103°43'0 0.0
2017-Apr-14 06:58N 01°15' E 103°43'0 0.0
2017-Apr-14 06:28N 01°15' E 103°43'0 0.0
2017-Apr-14 05:58N 01°15' E 103°43'0 0.0
2017-Apr-14 05:28N 01°15' E 103°43'0 0.0
2017-Apr-14 04:58N 01°15' E 103°43'0 0.0
2017-Apr-14 04:28N 01°15' E 103°43'0 0.1
2017-Apr-14 03:55N 01°15' E 103°43'0 0.1
2017-Apr-14 03:28N 01°15' E 103°43'0 0.1
2017-Apr-14 02:58N 01°15' E 103°43'0 0.1
2017-Apr-14 02:28N 01°15' E 103°43'0 0.1
2017-Apr-14 01:55N 01°15' E 103°43'0 0.1
2017-Apr-14 01:28N 01°15' E 103°43'0 0.0
2017-Apr-14 00:58N 01°15' E 103°43'0 0.0
2017-Apr-14 00:28N 01°15' E 103°43'0 0.0
2017-Apr-13 23:58N 01°15' E 103°43'0 0.0
2017-Apr-13 23:28N 01°15' E 103°43'0 0.0
2017-Apr-13 22:58N 01°15' E 103°43'0 0.0
2017-Apr-13 22:28N 01°15' E 103°43'0 0.0
2017-Apr-13 21:58N 01°15' E 103°43'0 0.0
2017-Apr-13 21:28N 01°15' E 103°43'0 0.0
2017-Apr-13 20:58N 01°15' E 103°43'0 0.0
2017-Apr-13 20:28N 01°15' E 103°43'0 0.1
2017-Apr-13 19:58N 01°15' E 103°43'0 0.1
2017-Apr-13 19:28N 01°15' E 103°43'0 0.0
2017-Apr-13 18:58N 01°15' E 103°43'0 0.0
2017-Apr-13 18:25N 01°15' E 103°43'0 0.0
2017-Apr-13 17:55N 01°15' E 103°43'0 0.0
2017-Apr-13 17:28N 01°15' E 103°43'0 0.0
2017-Apr-13 16:58N 01°15' E 103°43'0 0.0
2017-Apr-13 16:28N 01°15' E 103°43'0 0.0
2017-Apr-13 15:58N 01°15' E 103°43'0 0.0
2017-Apr-13 15:28N 01°15' E 103°43'0 0.0
2017-Apr-13 14:58N 01°15' E 103°43'3 3.5
2017-Apr-13 14:00N 01°13' E 103°40'2 3.7
2017-Apr-13 13:30N 01°13' E 103°39'0 0.1
2017-Apr-13 13:00N 01°13' E 103°39'0 0.0
2017-Apr-13 12:30N 01°13' E 103°39'0 0.0
2017-Apr-13 11:54N 01°13' E 103°39'0 0.0
2017-Apr-13 11:30N 01°13' E 103°39'0 0.0
2017-Apr-13 10:54N 01°13' E 103°39'0 0.0
2017-Apr-13 10:30N 01°13' E 103°39'0 0.1
2017-Apr-13 09:57N 01°13' E 103°39'0 0.1
2017-Apr-13 09:15N 01°13' E 103°39'0 0.0
2017-Apr-13 08:51N 01°13' E 103°39'0 0.0
2017-Apr-13 08:30N 01°13' E 103°39'0 0.1
2017-Apr-13 08:00N 01°13' E 103°39'0 0.0
2017-Apr-13 07:30N 01°13' E 103°39'0 0.1
2017-Apr-13 07:00N 01°13' E 103°39'0 0.0
2017-Apr-13 06:30N 01°13' E 103°39'0 0.0
2017-Apr-13 06:00N 01°13' E 103°39'0 0.0
2017-Apr-13 05:30N 01°13' E 103°39'0 0.1
2017-Apr-13 05:00N 01°13' E 103°39'0 0.0
2017-Apr-13 04:30N 01°13' E 103°39'0 0.0
2017-Apr-13 03:54N 01°13' E 103°39'0 0.0
2017-Apr-13 03:30N 01°13' E 103°39'0 0.0
2017-Apr-13 03:00N 01°13' E 103°39'0 0.1
2017-Apr-13 02:27N 01°13' E 103°39'0 0.0
2017-Apr-13 01:58N 01°13' E 103°39'0 0.1
2017-Apr-13 01:30N 01°13' E 103°39'0 0.1
2017-Apr-13 01:00N 01°13' E 103°39'0 0.1
2017-Apr-13 00:30N 01°13' E 103°39'0 0.0
2017-Apr-13 00:00N 01°13' E 103°39'0 0.1
2017-Apr-12 23:29N 01°13' E 103°39'0 0.1
2017-Apr-12 22:59N 01°13' E 103°39'0 0.0
2017-Apr-12 22:30N 01°13' E 103°39'0 0.1
2017-Apr-12 22:00N 01°13' E 103°39'0 0.0
2017-Apr-12 21:30N 01°13' E 103°39'0 0.2
2017-Apr-12 20:58N 01°13' E 103°39'0 0.3
2017-Apr-12 20:30N 01°13' E 103°39'0 0.1
2017-Apr-12 20:00N 01°13' E 103°39'2 4.7
2017-Apr-12 19:30N 01°11' E 103°40'5 9.4
2017-Apr-12 18:59N 01°09' E 103°44'510.2
2017-Apr-12 18:30N 01°11' E 103°49'611.4
2017-Apr-12 18:00N 01°13' E 103°54'611.9
2017-Apr-12 17:30N 01°16' E 103°60'  

Dump ship's entire track history